Impacts METAR Board INFO
IDs:

KCLT - Charlotte/Douglas In, NC, US

Updated at: 0516 UTC 16 Dec 2017
Potential Impact None Slight Moderate High
Time15/17Z 15/18Z 15/19Z 15/20Z 15/21Z 15/22Z 15/23Z 16/00Z 16/01Z 16/02Z 16/03Z 16/04Z 16/05Z
VIS10 10 10 10 10 10 10 10 10 10 10 10 10
CIG250 200 200 250 190 180 230 -- -- -- -- -- --
CoverOVCOVCOVCOVCBKNBKNBKNSCTSCTFEWFEWFEWCLR
FltCatVFRVFRVFRVFRVFRVFRVFRVFRVFRVFRVFRVFRVFR
WX--------------------------
WDir0310300280340340350300340340320310340
WSpd0 6 3 5 3 3 3 3 4 4 5 4 4
WGst-- -- -- -- -- -- -- -- -- -- -- -- --
Raw hourly METARs
KCLT 151652Z 00000KT 10SM OVC250 07/M02 A2997 RMK AO2 SLP149 T00671022
KCLT 151752Z 31006KT 10SM BKN200 OVC250 08/M02 A2995 RMK AO2 SLP144 T00781022 10078 21006 58013
KCLT 151852Z 30003KT 10SM SCT160 BKN200 OVC250 08/M02 A2994 RMK AO2 SLP138 T00831022
KCLT 151952Z 28005KT 10SM SCT180 OVC250 08/M02 A2997 RMK AO2 PRESRR SLP149 T00781022
KCLT 152052Z 34003KT 10SM BKN190 BKN250 08/M02 A2994 RMK AO2 SLP140 T00831017 58003
KCLT 152152Z 34003KT 10SM BKN180 BKN250 07/M02 A2997 RMK AO2 SLP152 T00671017
KCLT 152252Z 35003KT 10SM SCT170 BKN230 05/M01 A3001 RMK AO2 SLP164 T00501011
KCLT 152352Z 30003KT 10SM FEW170 SCT230 04/M02 A3003 RMK AO2 SLP172 T00441017 10089 20039 51029
KCLT 160052Z 34004KT 10SM SCT230 03/M04 A3006 RMK AO2 SLP182 T00281039
KCLT 160152Z 34004KT 10SM FEW230 03/M03 A3007 RMK AO2 SLP186 T00281033
KCLT 160252Z 32005KT 10SM FEW250 01/M04 A3010 RMK AO2 SLP195 T00111044 53023
KCLT 160352Z 31004KT 10SM FEW250 01/M06 A3013 RMK AO2 SLP205 T00111056
KCLT 160452Z 34004KT 10SM CLR M01/M06 A3013 RMK AO2 SLP207 T10061061 400891006